首页
METAR-TAF:

METAR-TAF

机场 :

克拉斯诺达尔, 俄罗斯

纬度: 45-02N, 经度: 039-09E, 海拔: 33米

当前天气观测

该预报发布于49分钟前的12:30 UTC
风速2节,风向
温度 16°C
湿度 48%
气压 1023 hPa
能见度10公里或以上
1500米以下无云,无积雨云

METAR: URKK 121230Z 19001MPS CAVOK 16/05 Q1023 R23L/CLRD70 NOSIG RMK QFE764

时间: 16:19 (13:19 UTC)

预报

该预报发布于2小时和27分钟前的10:52 UTC
预报有效从12日的 12点(UTC)到 13日的 12点(UTC)
风速6节,风向东转东北,有时为16节阵风
能见度10公里或以上
散云层高于5000英尺
短暂存在
从 12日的 18点(UTC)到 13日的 09点(UTC)
能見度: 3100
散云层高于1100英尺
轻雾

TAF: URKK 121052Z 1212/1312 07003G08MPS 9999 SCT050 TEMPO 1218/1309 3100 BR SCT011

超过4000个机场的气象观测和天气预报(METAR&TAF报告)。

可查询的气象台以黄色和红色小点在地图上表示。

将鼠标移到小点上方,可查看气象台名称。

然后点击查看天气观测和预报。

如需切换地图:点击带黑十字的绿色按钮放大地图;点击带横线的绿色按钮缩小地图;或者点击绿色箭头查看邻近地区的地图。


METAR-TAF: